This is the latest recevied weather packets stored in our database for station/object AE6DC-5. If no packets are shown the sender has not sent any weather packets the latest 10 day(s).
| Time | Temp. | Humidity | Pressure | Rain* | Wind** | Luminosity | Snow |
|---|---|---|---|---|---|---|---|
| 1777932139 | 13.89° C | 83% | 1015.8 hPa | 0 mm | - | 604 W/m² | - |
| 1777931056 | 13.89° C | 82% | 1016.2 hPa | 0 mm | - | 391 W/m² | - |
| 1777922419 | 13.33° C | 84% | 1015.4 hPa | 0 mm | - | 1215 W/m² | - |
| 1777919540 | 13.33° C | 87% | 1015.4 hPa | 0 mm | - | 915 W/m² | - |
| 1777918820 | 13.89° C | 88% | 1015.6 hPa | 0 mm | - | 752 W/m² | - |
| 1777918097 | 13.33° C | 87% | 1016.2 hPa | 0 mm | - | 287 W/m² | - |
| 1777916304 | 13.33° C | 88% | 1015.9 hPa | 0 mm | - | 394 W/m² | - |
| 1777914138 | 13.33° C | 88% | 1015 hPa | 0 mm | - | 619 W/m² | - |
| 1777913059 | 13.33° C | 87% | 1015.2 hPa | 0 mm | - | 349 W/m² | - |
| 1777912699 | 13.33° C | 87% | 1015.2 hPa | 0 mm | - | 298 W/m² | - |
| 1777911636 | 13.33° C | 87% | 1014.8 hPa | 0 mm | - | 589 W/m² | - |
| 1777910548 | 13.33° C | 88% | 1014.7 hPa | 0 mm | - | 525 W/m² | - |
| 1777905158 | 12.22° C | 89% | 1015.1 hPa | 0 mm | - | 177 W/m² | - |
| 1777904778 | 12.22° C | 89% | 1015.1 hPa | 0 mm | - | 158 W/m² | - |
| 1777903341 | 11.67° C | 90% | 1015 hPa | 0 mm | - | 77 W/m² | - |
| 1777902262 | 11.67° C | 90% | 1015.1 hPa | 0 mm | - | 29 W/m² | - |
| 1777899382 | 11.67° C | 90% | 1014.9 hPa | 0 mm | - | 0 W/m² | - |
| 1777899023 | 11.67° C | 90% | 1014.7 hPa | 0 mm | - | 0 W/m² | - |
| 1777895424 | 12.22° C | 90% | 1014.8 hPa | 0 mm | - | 0 W/m² | - |
| 1777894704 | 12.78° C | 89% | 1014.8 hPa | 0 mm | - | 0 W/m² | - |
| 1777893264 | 12.22° C | 90% | 1014.7 hPa | 0 mm | - | 0 W/m² | - |
| 1777890736 | 12.78° C | 90% | 1014.6 hPa | 0 mm | - | 0 W/m² | - |
| 1777889309 | 12.78° C | 90% | 1014.4 hPa | 0 mm | - | 0 W/m² | - |
| 1777886070 | 12.78° C | 89% | 1014.8 hPa | 0 mm | - | 0 W/m² | - |
| 1777885698 | 12.78° C | 88% | 1014.8 hPa | 0 mm | - | 0 W/m² | - |
* Rain latest hour (hover to see other rain measurements)
** Current wind speed in m/s (hover to see current wind gust speed)